Monroe, MI

8:54 PM EDT on July 25, 2017 (GMT -0400)
Custer

Weather History for KTTF - October, 2013

Change the Weather History Date:

Wednesday, October 30, 2013

  Actual Average Record
Temperature  
Mean Temperature 46 °F -  
Max Temperature 60 °F 54 °F 78 °F (1946)
Min Temperature 32 °F 38 °F 24 °F (1980)
Degree Days  
Heating Degree Days 19    
Moisture  
Dew Point 42 °F    
Average Humidity 83    
Maximum Humidity 100    
Minimum Humidity 52    
Precipitation  
Precipitation 0.00 in - - ()
Sea Level Pressure  
Sea Level Pressure 30.12 in    
Wind  
Wind Speed 2 mph (SE)    
Max Wind Speed 8 mph    
Max Gust Speed -    
Visibility 7 miles    
Events Fog , Rain    
Averages and records for this station are not official NWS values.
T = Trace of Precipitation, MM = Missing Value Source: NWS Daily Summary

Daily Weather History Graph

Daily Weather History Graph

Search for Another Location

Airport or City:

Trip Planner

Search our weather history database for the weather conditions in past years. The results will help you decide how hot, cold, wet, or windy it might be!

Date:

Astronomy

Oct. 30, 2013 Rise Set
Actual Time 8:04 AM EDT 6:30 PM EDT
Civil Twilight 7:35 AM EDT 6:58 PM EDT
Nautical Twilight 7:02 AM EDT 7:31 PM EDT
Astronomical Twilight 6:29 AM EDT 8:04 PM EDT
Moon 3:48 AM EDT (10/30) 4:18 PM EDT (10/30)
Length of Visible Light 11h 23m
Length of Day
10h 25m
Waning Crescent, 17% of the Moon is Illuminated
Oct 30
Waning Crescent
Nov 3
New
Nov 10
First Quarter
Nov 17
Full
Nov 25
Last Quarter

Hourly Weather History & Observations

Time (EDT) Temp. Windchill Dew Point Humidity Pressure Visibility Wind Dir Wind Speed Gust Speed Precip Events Conditions
12:13 AM 39.2 °F - 39.2 °F 100% 30.22 in 10.0 mi Calm Calm - N/A   Clear
12:33 AM 39.2 °F - 37.4 °F 93% 30.21 in 7.0 mi Calm Calm - N/A   Clear
12:53 AM 37.4 °F - 37.4 °F 100% 30.20 in 5.0 mi Calm Calm - N/A   Clear
1:13 AM 35.6 °F - 35.6 °F 100% 30.21 in 7.0 mi Calm Calm - N/A   Clear
1:34 AM 35.6 °F - 35.6 °F 100% 30.19 in 5.0 mi Calm Calm - N/A   Clear
1:54 AM 37.4 °F 34.9 °F 37.4 °F 100% 30.20 in 5.0 mi NNE 3.5 mph - N/A   Clear
2:14 AM 37.4 °F - 35.6 °F 93% 30.19 in 2.5 mi Calm Calm - N/A   Clear
2:34 AM 35.6 °F - 35.6 °F 100% 30.19 in 4.0 mi Calm Calm - N/A   Clear
2:54 AM 35.6 °F - 35.6 °F 100% 30.19 in 4.0 mi Calm Calm - N/A   Clear
3:14 AM 35.6 °F - 35.6 °F 100% 30.19 in 3.0 mi Calm Calm - N/A   Clear
3:34 AM 37.4 °F - 37.4 °F 100% 30.18 in 3.0 mi Calm Calm - N/A   Clear
3:54 AM 35.6 °F - 35.6 °F 100% 30.17 in 1.2 mi Calm Calm - N/A   Mist
4:15 AM 33.8 °F - 33.8 °F 100% 30.16 in 0.2 mi Calm Calm - N/A Fog Fog
4:35 AM 32.0 °F - 32.0 °F 100% 30.15 in 0.2 mi Calm Calm - N/A Fog Fog
4:55 AM 33.8 °F - 33.8 °F 100% 30.15 in 0.5 mi Calm Calm - N/A Fog Fog
5:15 AM 33.8 °F - 33.8 °F 100% 30.15 in 2.0 mi Calm Calm - N/A   Mostly Cloudy
5:35 AM 32.0 °F - 32.0 °F 100% 30.15 in 2.5 mi Calm Calm - N/A   Clear
5:55 AM 32.0 °F - 32.0 °F 100% 30.15 in 7.0 mi Calm Calm - N/A   Scattered Clouds
6:15 AM 33.8 °F - 33.8 °F 100% 30.16 in 0.2 mi Calm Calm - N/A Fog Fog
6:35 AM 32.0 °F - 32.0 °F 100% 30.16 in 1.0 mi Calm Calm - N/A   Overcast
6:55 AM 32.0 °F - 32.0 °F 100% 30.17 in 3.0 mi Calm Calm - N/A   Scattered Clouds
7:15 AM 33.8 °F - 33.8 °F 100% 30.17 in 2.0 mi Calm Calm - N/A   Clear
7:35 AM 32.0 °F - 32.0 °F 100% 30.16 in 1.0 mi Calm Calm - N/A   Mist
7:55 AM 33.8 °F - 33.8 °F 100% 30.16 in 3.0 mi Calm Calm - N/A   Clear
8:15 AM 32.0 °F - 32.0 °F 100% 30.16 in 2.5 mi Calm Calm - N/A   Clear
8:35 AM 32.0 °F - 32.0 °F 100% 30.17 in 4.0 mi Calm Calm - N/A   Clear
8:56 AM 33.8 °F - 33.8 °F 100% 30.18 in 4.0 mi Calm Calm - N/A   Clear
9:16 AM 35.6 °F - 35.6 °F 100% 30.18 in 3.0 mi Calm Calm - N/A   Clear
9:36 AM 39.2 °F - 39.2 °F 100% 30.19 in 4.0 mi Calm Calm - N/A   Clear
9:56 AM 42.8 °F - 42.8 °F 100% 30.18 in 4.0 mi Calm Calm - N/A   Clear
10:16 AM 44.6 °F - 42.8 °F 93% 30.19 in 5.0 mi Calm Calm - N/A   Clear
10:36 AM 48.2 °F - 44.6 °F 87% 30.19 in 7.0 mi Calm Calm - N/A   Clear
10:56 AM 51.8 °F - 44.6 °F 76% 30.18 in 7.0 mi Calm Calm - N/A   Clear
11:11 AM 53.6 °F - 44.6 °F 72% 30.18 in 7.0 mi Calm Calm - N/A   Clear
11:32 AM 55.4 °F - 42.8 °F 63% 30.17 in 7.0 mi Calm Calm - N/A   Clear
11:52 AM 55.4 °F - 42.8 °F 63% 30.17 in 10.0 mi Calm Calm - N/A   Clear
12:12 PM 57.2 °F - 44.6 °F 63% 30.17 in 10.0 mi Calm Calm - N/A   Clear
12:32 PM 57.2 °F - 42.8 °F 59% 30.17 in 10.0 mi Calm Calm - N/A   Clear
12:52 PM 59.0 °F - 44.6 °F 59% 30.15 in 10.0 mi South 4.6 mph - N/A   Clear
1:12 PM 60.8 °F - 42.8 °F 52% 30.14 in 10.0 mi SSE 3.5 mph - N/A   Clear
1:32 PM 60.8 °F - 42.8 °F 52% 30.12 in 10.0 mi SSE 5.8 mph - N/A   Clear
1:52 PM 60.8 °F - 44.6 °F 55% 30.12 in 10.0 mi SSE 8.1 mph - N/A   Clear
2:12 PM 60.8 °F - 44.6 °F 55% 30.10 in 10.0 mi SSE 8.1 mph - N/A   Clear
2:32 PM 60.8 °F - 44.6 °F 55% 30.09 in 10.0 mi SSE 8.1 mph - N/A   Clear
2:52 PM 60.8 °F - 44.6 °F 55% 30.09 in 10.0 mi SSE 6.9 mph - N/A   Clear
3:13 PM 60.8 °F - 44.6 °F 55% 30.09 in 10.0 mi East 4.6 mph - N/A   Clear
3:33 PM 60.8 °F - 44.6 °F 55% 30.08 in 10.0 mi East 5.8 mph - N/A   Clear
3:53 PM 60.8 °F - 44.6 °F 55% 30.08 in 10.0 mi SE 5.8 mph - N/A   Clear
4:13 PM 59.0 °F - 44.6 °F 59% 30.08 in 10.0 mi East 4.6 mph - N/A   Clear
4:33 PM 59.0 °F - 46.4 °F 63% 30.08 in 10.0 mi ESE 6.9 mph - N/A   Clear
4:53 PM 57.2 °F - 46.4 °F 67% 30.08 in 10.0 mi SE 5.8 mph - N/A   Mostly Cloudy
5:13 PM 57.2 °F - 44.6 °F 63% 30.07 in 10.0 mi East 5.8 mph - N/A   Mostly Cloudy
5:33 PM 55.4 °F - 42.8 °F 63% 30.06 in 10.0 mi ESE 5.8 mph - N/A   Overcast
5:54 PM 55.4 °F - 42.8 °F 63% 30.06 in 10.0 mi ESE 4.6 mph - N/A   Overcast
6:14 PM 55.4 °F - 42.8 °F 63% 30.05 in 10.0 mi ESE 3.5 mph - N/A   Overcast
6:34 PM 53.6 °F - 44.6 °F 72% 30.06 in 10.0 mi Calm Calm - N/A   Overcast
6:54 PM 53.6 °F - 46.4 °F 77% 30.05 in 10.0 mi East 4.6 mph - N/A   Overcast
7:14 PM 53.6 °F - 46.4 °F 77% 30.06 in 10.0 mi ESE 5.8 mph - N/A   Overcast
7:34 PM 53.6 °F - 46.4 °F 77% 30.05 in 10.0 mi East 6.9 mph - N/A   Overcast
7:54 PM 53.6 °F - 48.2 °F 82% 30.05 in 10.0 mi ESE 6.9 mph - N/A   Overcast
8:14 PM 53.6 °F - 48.2 °F 82% 30.05 in 10.0 mi SE 6.9 mph - N/A   Overcast
8:35 PM 55.4 °F - 48.2 °F 77% 30.05 in 10.0 mi SE 4.6 mph - N/A   Overcast
8:55 PM 53.6 °F - 48.2 °F 82% 30.04 in 10.0 mi SE 4.6 mph - N/A   Overcast
9:15 PM 55.4 °F - 50.0 °F 82% 30.03 in 10.0 mi SE 5.8 mph - N/A   Overcast
9:35 PM 55.4 °F - 50.0 °F 82% 30.02 in 10.0 mi SE 4.6 mph - N/A   Overcast
9:55 PM 55.4 °F - 51.8 °F 88% 30.01 in 10.0 mi SE 3.5 mph - N/A   Overcast
10:15 PM 55.4 °F - 51.8 °F 88% 30.00 in 10.0 mi ESE 5.8 mph - N/A Rain Light Rain
10:35 PM 55.4 °F - 51.8 °F 88% 30.00 in 5.0 mi NNE 3.5 mph - N/A Rain Rain
10:55 PM 53.6 °F - 51.8 °F 94% 29.99 in 5.0 mi SE 8.1 mph - N/A Rain Light Rain
11:15 PM 55.4 °F - 51.8 °F 88% 29.97 in 7.0 mi SE 6.9 mph - N/A   Light Drizzle
11:35 PM 55.4 °F - 51.8 °F 88% 29.96 in 7.0 mi SE 8.1 mph - N/A   Overcast
11:55 PM 55.4 °F - 53.6 °F 94% 29.95 in 7.0 mi SE 8.1 mph - N/A Rain Rain